sensor_id;sensor_type;location;lat;lon;timestamp;temperature;humidity
64143;DHT22;50437;51.970;5.904;2022-07-03T00:00:26;19.50;61.90
64143;DHT22;50437;51.970;5.904;2022-07-03T00:02:52;19.50;62.10
64143;DHT22;50437;51.970;5.904;2022-07-03T00:05:18;19.50;62.20
64143;DHT22;50437;51.970;5.904;2022-07-03T00:07:44;19.40;62.00
64143;DHT22;50437;51.970;5.904;2022-07-03T00:10:10;19.40;62.70
64143;DHT22;50437;51.970;5.904;2022-07-03T00:12:36;19.30;63.00
64143;DHT22;50437;51.970;5.904;2022-07-03T00:15:02;19.20;63.40
64143;DHT22;50437;51.970;5.904;2022-07-03T00:17:29;19.10;64.00
64143;DHT22;50437;51.970;5.904;2022-07-03T00:19:55;19.10;64.30
64143;DHT22;50437;51.970;5.904;2022-07-03T00:22:21;19.00;64.60
64143;DHT22;50437;51.970;5.904;2022-07-03T00:24:50;19.00;65.10
64143;DHT22;50437;51.970;5.904;2022-07-03T00:27:17;18.90;66.20
64143;DHT22;50437;51.970;5.904;2022-07-03T00:29:44;18.80;66.70
64143;DHT22;50437;51.970;5.904;2022-07-03T00:32:11;18.80;67.00
64143;DHT22;50437;51.970;5.904;2022-07-03T00:34:38;18.70;67.20
64143;DHT22;50437;51.970;5.904;2022-07-03T00:37:05;18.70;67.80
64143;DHT22;50437;51.970;5.904;2022-07-03T00:39:32;18.70;68.30
64143;DHT22;50437;51.970;5.904;2022-07-03T00:42:01;18.70;68.10
64143;DHT22;50437;51.970;5.904;2022-07-03T00:44:28;18.70;68.10
64143;DHT22;50437;51.970;5.904;2022-07-03T00:46:54;18.70;68.10
64143;DHT22;50437;51.970;5.904;2022-07-03T00:49:22;18.60;68.40
64143;DHT22;50437;51.970;5.904;2022-07-03T00:51:50;18.60;68.10
64143;DHT22;50437;51.970;5.904;2022-07-03T00:54:16;18.60;68.30
64143;DHT22;50437;51.970;5.904;2022-07-03T00:56:46;18.50;67.90
64143;DHT22;50437;51.970;5.904;2022-07-03T00:59:15;18.50;68.00
64143;DHT22;50437;51.970;5.904;2022-07-03T01:01:41;18.40;68.30
64143;DHT22;50437;51.970;5.904;2022-07-03T01:06:56;18.30;69.00
64143;DHT22;50437;51.970;5.904;2022-07-03T01:09:29;18.20;69.20
64143;DHT22;50437;51.970;5.904;2022-07-03T01:12:02;18.20;69.70
64143;DHT22;50437;51.970;5.904;2022-07-03T01:14:47;18.10;69.80
64143;DHT22;50437;51.970;5.904;2022-07-03T01:19:43;17.90;69.90
64143;DHT22;50437;51.970;5.904;2022-07-03T01:25:14;17.90;70.20
64143;DHT22;50437;51.970;5.904;2022-07-03T01:30:09;17.80;69.90
64143;DHT22;50437;51.970;5.904;2022-07-03T01:32:43;17.80;70.40
64143;DHT22;50437;51.970;5.904;2022-07-03T01:35:15;17.70;70.70
64143;DHT22;50437;51.970;5.904;2022-07-03T01:37:45;17.70;70.70
64143;DHT22;50437;51.970;5.904;2022-07-03T01:40:11;17.70;71.80
64143;DHT22;50437;51.970;5.904;2022-07-03T01:42:38;17.60;74.40
64143;DHT22;50437;51.970;5.904;2022-07-03T01:45:09;17.60;73.60
64143;DHT22;50437;51.970;5.904;2022-07-03T01:47:36;17.50;72.90
64143;DHT22;50437;51.970;5.904;2022-07-03T01:50:03;17.50;72.60
64143;DHT22;50437;51.970;5.904;2022-07-03T01:52:31;17.50;71.60
64143;DHT22;50437;51.970;5.904;2022-07-03T01:55:00;17.40;69.70
64143;DHT22;50437;51.970;5.904;2022-07-03T01:57:35;17.50;69.80
64143;DHT22;50437;51.970;5.904;2022-07-03T02:00:03;17.40;69.30
64143;DHT22;50437;51.970;5.904;2022-07-03T02:02:39;17.50;69.60
64143;DHT22;50437;51.970;5.904;2022-07-03T02:05:08;17.40;69.50
64143;DHT22;50437;51.970;5.904;2022-07-03T02:07:43;17.40;69.80
64143;DHT22;50437;51.970;5.904;2022-07-03T02:10:13;17.40;70.00
64143;DHT22;50437;51.970;5.904;2022-07-03T02:13:01;17.30;68.80
64143;DHT22;50437;51.970;5.904;2022-07-03T02:15:32;17.30;68.90
64143;DHT22;50437;51.970;5.904;2022-07-03T02:18:00;17.30;70.20
64143;DHT22;50437;51.970;5.904;2022-07-03T02:20:26;17.20;69.90
64143;DHT22;50437;51.970;5.904;2022-07-03T02:22:56;17.10;70.00
64143;DHT22;50437;51.970;5.904;2022-07-03T02:25:23;17.10;70.20
64143;DHT22;50437;51.970;5.904;2022-07-03T02:28:06;17.10;70.40
64143;DHT22;50437;51.970;5.904;2022-07-03T02:30:34;17.10;70.30
64143;DHT22;50437;51.970;5.904;2022-07-03T02:33:01;17.10;70.30
64143;DHT22;50437;51.970;5.904;2022-07-03T02:35:29;17.00;70.90
64143;DHT22;50437;51.970;5.904;2022-07-03T02:40:35;16.90;70.90
64143;DHT22;50437;51.970;5.904;2022-07-03T02:43:15;16.90;71.30
64143;DHT22;50437;51.970;5.904;2022-07-03T02:45:46;16.90;71.10
64143;DHT22;50437;51.970;5.904;2022-07-03T02:48:16;16.90;70.50
64143;DHT22;50437;51.970;5.904;2022-07-03T02:50:46;16.90;70.10
64143;DHT22;50437;51.970;5.904;2022-07-03T02:55:43;16.80;70.20
64143;DHT22;50437;51.970;5.904;2022-07-03T02:58:16;16.80;70.00
64143;DHT22;50437;51.970;5.904;2022-07-03T03:03:19;16.80;69.70
64143;DHT22;50437;51.970;5.904;2022-07-03T03:05:49;16.80;70.80
64143;DHT22;50437;51.970;5.904;2022-07-03T03:11:02;16.70;70.80
64143;DHT22;50437;51.970;5.904;2022-07-03T03:13:31;16.70;70.80
64143;DHT22;50437;51.970;5.904;2022-07-03T03:15:58;16.70;71.40
64143;DHT22;50437;51.970;5.904;2022-07-03T03:18:28;16.60;72.10
64143;DHT22;50437;51.970;5.904;2022-07-03T03:20:56;16.60;72.50
64143;DHT22;50437;51.970;5.904;2022-07-03T03:25:53;16.60;72.80
64143;DHT22;50437;51.970;5.904;2022-07-03T03:28:19;16.60;72.80
64143;DHT22;50437;51.970;5.904;2022-07-03T03:30:45;16.50;73.40
64143;DHT22;50437;51.970;5.904;2022-07-03T03:33:11;16.60;73.50
64143;DHT22;50437;51.970;5.904;2022-07-03T03:35:38;16.50;73.50
64143;DHT22;50437;51.970;5.904;2022-07-03T03:38:04;16.50;73.70
64143;DHT22;50437;51.970;5.904;2022-07-03T03:40:31;16.50;74.00
64143;DHT22;50437;51.970;5.904;2022-07-03T03:42:57;16.60;73.80
64143;DHT22;50437;51.970;5.904;2022-07-03T03:45:23;16.60;73.90
64143;DHT22;50437;51.970;5.904;2022-07-03T03:47:49;16.60;73.80
64143;DHT22;50437;51.970;5.904;2022-07-03T03:50:15;16.70;74.40
64143;DHT22;50437;51.970;5.904;2022-07-03T03:52:41;16.70;74.20
64143;DHT22;50437;51.970;5.904;2022-07-03T03:55:07;16.70;74.20
64143;DHT22;50437;51.970;5.904;2022-07-03T03:57:35;16.70;74.30
64143;DHT22;50437;51.970;5.904;2022-07-03T04:00:02;16.80;73.70
64143;DHT22;50437;51.970;5.904;2022-07-03T04:02:38;16.90;73.60
64143;DHT22;50437;51.970;5.904;2022-07-03T04:05:04;17.00;73.20
64143;DHT22;50437;51.970;5.904;2022-07-03T04:07:30;17.10;73.10
64143;DHT22;50437;51.970;5.904;2022-07-03T04:09:56;17.10;72.60
64143;DHT22;50437;51.970;5.904;2022-07-03T04:12:23;17.20;72.80
64143;DHT22;50437;51.970;5.904;2022-07-03T04:14:49;17.20;72.00
64143;DHT22;50437;51.970;5.904;2022-07-03T04:17:15;17.30;71.90
64143;DHT22;50437;51.970;5.904;2022-07-03T04:19:41;17.30;71.60
64143;DHT22;50437;51.970;5.904;2022-07-03T04:22:07;17.40;72.10
64143;DHT22;50437;51.970;5.904;2022-07-03T04:24:37;17.40;72.10
64143;DHT22;50437;51.970;5.904;2022-07-03T04:27:03;17.30;71.60
64143;DHT22;50437;51.970;5.904;2022-07-03T04:29:29;17.30;71.30
64143;DHT22;50437;51.970;5.904;2022-07-03T04:31:55;17.30;71.50
64143;DHT22;50437;51.970;5.904;2022-07-03T04:34:21;17.20;71.50
64143;DHT22;50437;51.970;5.904;2022-07-03T04:36:47;17.10;71.50
64143;DHT22;50437;51.970;5.904;2022-07-03T04:39:13;17.10;71.50
64143;DHT22;50437;51.970;5.904;2022-07-03T04:41:39;17.00;71.40
64143;DHT22;50437;51.970;5.904;2022-07-03T04:44:04;17.00;71.40
64143;DHT22;50437;51.970;5.904;2022-07-03T04:46:31;16.90;72.10
64143;DHT22;50437;51.970;5.904;2022-07-03T04:48:57;16.90;71.70
64143;DHT22;50437;51.970;5.904;2022-07-03T04:51:23;16.90;72.20
64143;DHT22;50437;51.970;5.904;2022-07-03T04:53:49;16.90;73.30
64143;DHT22;50437;51.970;5.904;2022-07-03T04:56:15;16.90;73.00
64143;DHT22;50437;51.970;5.904;2022-07-03T04:58:41;16.90;72.80
64143;DHT22;50437;51.970;5.904;2022-07-03T05:01:07;17.00;72.80
64143;DHT22;50437;51.970;5.904;2022-07-03T05:03:33;17.10;73.10
64143;DHT22;50437;51.970;5.904;2022-07-03T05:05:59;17.10;72.70
64143;DHT22;50437;51.970;5.904;2022-07-03T05:08:24;17.20;72.80
64143;DHT22;50437;51.970;5.904;2022-07-03T05:10:50;17.30;72.60
64143;DHT22;50437;51.970;5.904;2022-07-03T05:13:16;17.50;72.20
64143;DHT22;50437;51.970;5.904;2022-07-03T05:15:42;17.70;71.70
64143;DHT22;50437;51.970;5.904;2022-07-03T05:18:08;17.90;70.40
64143;DHT22;50437;51.970;5.904;2022-07-03T05:20:34;18.10;70.00
64143;DHT22;50437;51.970;5.904;2022-07-03T05:23:01;18.30;68.30
64143;DHT22;50437;51.970;5.904;2022-07-03T05:25:28;18.40;67.40
64143;DHT22;50437;51.970;5.904;2022-07-03T05:27:54;18.40;67.10
64143;DHT22;50437;51.970;5.904;2022-07-03T05:30:21;18.50;66.80
64143;DHT22;50437;51.970;5.904;2022-07-03T05:32:47;18.70;65.90
64143;DHT22;50437;51.970;5.904;2022-07-03T05:35:13;18.80;64.20
64143;DHT22;50437;51.970;5.904;2022-07-03T05:37:39;18.90;64.80
64143;DHT22;50437;51.970;5.904;2022-07-03T05:40:06;18.90;63.00
64143;DHT22;50437;51.970;5.904;2022-07-03T05:42:32;18.80;64.10
64143;DHT22;50437;51.970;5.904;2022-07-03T05:44:59;18.80;63.40
64143;DHT22;50437;51.970;5.904;2022-07-03T05:47:28;18.60;63.90
64143;DHT22;50437;51.970;5.904;2022-07-03T05:49:54;18.50;64.70
64143;DHT22;50437;51.970;5.904;2022-07-03T05:52:20;18.50;65.30
64143;DHT22;50437;51.970;5.904;2022-07-03T05:54:46;18.40;65.60
64143;DHT22;50437;51.970;5.904;2022-07-03T05:57:12;18.40;66.30
64143;DHT22;50437;51.970;5.904;2022-07-03T05:59:38;18.40;65.40
64143;DHT22;50437;51.970;5.904;2022-07-03T06:02:04;18.30;66.20
64143;DHT22;50437;51.970;5.904;2022-07-03T06:04:30;18.30;66.30
64143;DHT22;50437;51.970;5.904;2022-07-03T06:06:56;18.20;66.70
64143;DHT22;50437;51.970;5.904;2022-07-03T06:09:22;18.30;67.20
64143;DHT22;50437;51.970;5.904;2022-07-03T06:11:48;18.30;66.80
64143;DHT22;50437;51.970;5.904;2022-07-03T06:14:14;18.30;66.70
64143;DHT22;50437;51.970;5.904;2022-07-03T06:16:40;18.50;65.50
64143;DHT22;50437;51.970;5.904;2022-07-03T06:19:06;18.70;65.50
64143;DHT22;50437;51.970;5.904;2022-07-03T06:21:33;19.00;65.20
64143;DHT22;50437;51.970;5.904;2022-07-03T06:23:59;19.20;63.90
64143;DHT22;50437;51.970;5.904;2022-07-03T06:26:25;19.40;63.20
64143;DHT22;50437;51.970;5.904;2022-07-03T06:28:52;19.50;62.50
64143;DHT22;50437;51.970;5.904;2022-07-03T06:31:18;19.30;62.00
64143;DHT22;50437;51.970;5.904;2022-07-03T06:33:44;20.20;61.70
64143;DHT22;50437;51.970;5.904;2022-07-03T06:36:10;22.90;54.00
64143;DHT22;50437;51.970;5.904;2022-07-03T06:38:35;25.60;47.90
64143;DHT22;50437;51.970;5.904;2022-07-03T06:41:02;28.10;41.50
64143;DHT22;50437;51.970;5.904;2022-07-03T06:43:27;29.40;37.90
64143;DHT22;50437;51.970;5.904;2022-07-03T06:45:53;30.50;34.50
64143;DHT22;50437;51.970;5.904;2022-07-03T06:48:19;31.00;32.70
64143;DHT22;50437;51.970;5.904;2022-07-03T06:50:45;30.30;33.40
64143;DHT22;50437;51.970;5.904;2022-07-03T06:53:11;29.40;33.80
64143;DHT22;50437;51.970;5.904;2022-07-03T06:55:37;28.20;36.90
64143;DHT22;50437;51.970;5.904;2022-07-03T06:58:03;29.10;35.80
64143;DHT22;50437;51.970;5.904;2022-07-03T07:00:29;29.80;34.90
64143;DHT22;50437;51.970;5.904;2022-07-03T07:02:55;30.10;33.70
64143;DHT22;50437;51.970;5.904;2022-07-03T07:05:21;30.50;34.40
64143;DHT22;50437;51.970;5.904;2022-07-03T07:07:48;31.10;32.30
64143;DHT22;50437;51.970;5.904;2022-07-03T07:10:14;31.50;31.30
64143;DHT22;50437;51.970;5.904;2022-07-03T07:12:40;31.60;30.90
64143;DHT22;50437;51.970;5.904;2022-07-03T07:15:06;31.80;31.40
64143;DHT22;50437;51.970;5.904;2022-07-03T07:17:32;32.20;29.90
64143;DHT22;50437;51.970;5.904;2022-07-03T07:19:58;32.20;29.60
64143;DHT22;50437;51.970;5.904;2022-07-03T07:22:24;32.10;30.20
64143;DHT22;50437;51.970;5.904;2022-07-03T07:24:51;32.40;29.50
64143;DHT22;50437;51.970;5.904;2022-07-03T07:27:17;32.20;30.00
64143;DHT22;50437;51.970;5.904;2022-07-03T07:29:43;32.40;29.20
64143;DHT22;50437;51.970;5.904;2022-07-03T07:32:09;32.60;28.80
64143;DHT22;50437;51.970;5.904;2022-07-03T07:34:35;32.80;28.80
64143;DHT22;50437;51.970;5.904;2022-07-03T07:37:01;32.60;28.60
64143;DHT22;50437;51.970;5.904;2022-07-03T07:39:27;32.80;29.60
64143;DHT22;50437;51.970;5.904;2022-07-03T07:41:53;32.70;28.30
64143;DHT22;50437;51.970;5.904;2022-07-03T07:44:19;31.90;28.90
64143;DHT22;50437;51.970;5.904;2022-07-03T07:46:45;31.20;30.40
64143;DHT22;50437;51.970;5.904;2022-07-03T07:49:11;31.20;31.20
64143;DHT22;50437;51.970;5.904;2022-07-03T07:51:37;32.10;30.60
64143;DHT22;50437;51.970;5.904;2022-07-03T07:54:03;31.70;29.20
64143;DHT22;50437;51.970;5.904;2022-07-03T07:56:29;31.90;30.60
64143;DHT22;50437;51.970;5.904;2022-07-03T07:58:55;31.50;30.00
64143;DHT22;50437;51.970;5.904;2022-07-03T08:01:21;30.90;29.80
64143;DHT22;50437;51.970;5.904;2022-07-03T08:04:05;30.40;30.70
64143;DHT22;50437;51.970;5.904;2022-07-03T08:06:50;31.10;31.10
64143;DHT22;50437;51.970;5.904;2022-07-03T08:09:16;32.10;29.70
64143;DHT22;50437;51.970;5.904;2022-07-03T08:11:42;32.80;28.80
64143;DHT22;50437;51.970;5.904;2022-07-03T08:14:08;32.70;29.30
64143;DHT22;50437;51.970;5.904;2022-07-03T08:16:35;33.30;29.20
64143;DHT22;50437;51.970;5.904;2022-07-03T08:19:04;33.50;28.10
64143;DHT22;50437;51.970;5.904;2022-07-03T08:21:30;33.90;26.60
64143;DHT22;50437;51.970;5.904;2022-07-03T08:23:56;33.90;27.30
64143;DHT22;50437;51.970;5.904;2022-07-03T08:26:22;33.10;27.50
64143;DHT22;50437;51.970;5.904;2022-07-03T08:28:48;32.90;26.50
64143;DHT22;50437;51.970;5.904;2022-07-03T08:31:14;31.80;28.10
64143;DHT22;50437;51.970;5.904;2022-07-03T08:33:39;31.30;30.10
64143;DHT22;50437;51.970;5.904;2022-07-03T08:36:05;32.00;28.30
64143;DHT22;50437;51.970;5.904;2022-07-03T08:38:32;32.10;28.30
64143;DHT22;50437;51.970;5.904;2022-07-03T08:41:02;32.90;28.00
64143;DHT22;50437;51.970;5.904;2022-07-03T08:43:28;33.10;27.80
64143;DHT22;50437;51.970;5.904;2022-07-03T08:45:54;33.10;27.60
64143;DHT22;50437;51.970;5.904;2022-07-03T08:48:20;33.50;25.50
64143;DHT22;50437;51.970;5.904;2022-07-03T08:50:47;33.80;25.60
64143;DHT22;50437;51.970;5.904;2022-07-03T08:53:13;34.00;24.90
64143;DHT22;50437;51.970;5.904;2022-07-03T08:55:39;33.80;24.70
64143;DHT22;50437;51.970;5.904;2022-07-03T08:58:05;33.50;25.00
64143;DHT22;50437;51.970;5.904;2022-07-03T09:00:31;33.20;25.50
64143;DHT22;50437;51.970;5.904;2022-07-03T09:02:57;32.90;25.80
64143;DHT22;50437;51.970;5.904;2022-07-03T09:05:24;31.90;25.70
64143;DHT22;50437;51.970;5.904;2022-07-03T09:07:50;31.50;26.40
64143;DHT22;50437;51.970;5.904;2022-07-03T09:10:17;31.60;27.40
64143;DHT22;50437;51.970;5.904;2022-07-03T09:12:44;32.00;26.80
64143;DHT22;50437;51.970;5.904;2022-07-03T09:15:10;32.20;27.60
64143;DHT22;50437;51.970;5.904;2022-07-03T09:17:36;32.40;26.90
64143;DHT22;50437;51.970;5.904;2022-07-03T09:20:03;31.50;27.10
64143;DHT22;50437;51.970;5.904;2022-07-03T09:22:30;31.60;26.80
64143;DHT22;50437;51.970;5.904;2022-07-03T09:27:32;32.40;26.50
64143;DHT22;50437;51.970;5.904;2022-07-03T09:32:46;32.30;27.10
64143;DHT22;50437;51.970;5.904;2022-07-03T09:35:13;31.40;28.20
64143;DHT22;50437;51.970;5.904;2022-07-03T09:37:40;32.30;28.30
64143;DHT22;50437;51.970;5.904;2022-07-03T09:40:07;31.20;27.20
64143;DHT22;50437;51.970;5.904;2022-07-03T09:42:33;30.40;29.10
64143;DHT22;50437;51.970;5.904;2022-07-03T09:44:59;30.30;29.60
64143;DHT22;50437;51.970;5.904;2022-07-03T09:47:25;30.70;29.50
64143;DHT22;50437;51.970;5.904;2022-07-03T09:54:52;30.90;28.80
64143;DHT22;50437;51.970;5.904;2022-07-03T09:57:18;30.70;28.80
64143;DHT22;50437;51.970;5.904;2022-07-03T09:59:44;30.30;29.70
64143;DHT22;50437;51.970;5.904;2022-07-03T10:02:10;30.10;30.70
64143;DHT22;50437;51.970;5.904;2022-07-03T10:04:38;29.40;32.30
64143;DHT22;50437;51.970;5.904;2022-07-03T10:07:04;28.10;34.10
64143;DHT22;50437;51.970;5.904;2022-07-03T10:09:31;27.20;38.30
64143;DHT22;50437;51.970;5.904;2022-07-03T10:11:58;27.00;39.20
64143;DHT22;50437;51.970;5.904;2022-07-03T10:14:25;28.20;36.20
64143;DHT22;50437;51.970;5.904;2022-07-03T10:16:51;29.60;33.60
64143;DHT22;50437;51.970;5.904;2022-07-03T10:19:21;30.00;31.70
64143;DHT22;50437;51.970;5.904;2022-07-03T10:21:50;30.50;31.70
64143;DHT22;50437;51.970;5.904;2022-07-03T10:24:17;31.30;29.60
64143;DHT22;50437;51.970;5.904;2022-07-03T10:26:43;31.60;29.70
64143;DHT22;50437;51.970;5.904;2022-07-03T10:29:09;31.80;28.10
64143;DHT22;50437;51.970;5.904;2022-07-03T10:31:39;31.60;29.50
64143;DHT22;50437;51.970;5.904;2022-07-03T10:34:05;30.80;29.00
64143;DHT22;50437;51.970;5.904;2022-07-03T10:36:32;30.70;29.80
64143;DHT22;50437;51.970;5.904;2022-07-03T10:38:59;29.80;30.70
64143;DHT22;50437;51.970;5.904;2022-07-03T10:41:30;29.00;32.90
64143;DHT22;50437;51.970;5.904;2022-07-03T10:44:17;29.20;33.50
64143;DHT22;50437;51.970;5.904;2022-07-03T10:47:02;29.50;32.20
64143;DHT22;50437;51.970;5.904;2022-07-03T10:49:28;29.90;31.00
64143;DHT22;50437;51.970;5.904;2022-07-03T10:51:55;30.40;33.00
64143;DHT22;50437;51.970;5.904;2022-07-03T10:54:34;30.80;30.00
64143;DHT22;50437;51.970;5.904;2022-07-03T10:57:09;30.80;29.50
64143;DHT22;50437;51.970;5.904;2022-07-03T11:07:28;30.20;30.70
64143;DHT22;50437;51.970;5.904;2022-07-03T11:25:42;29.50;31.00
64143;DHT22;50437;51.970;5.904;2022-07-03T11:28:47;30.00;31.50
64143;DHT22;50437;51.970;5.904;2022-07-03T11:41:21;28.80;32.30
64143;DHT22;50437;51.970;5.904;2022-07-03T11:43:47;29.50;31.30
64143;DHT22;50437;51.970;5.904;2022-07-03T11:46:23;29.90;31.90
64143;DHT22;50437;51.970;5.904;2022-07-03T11:48:49;30.40;32.20
64143;DHT22;50437;51.970;5.904;2022-07-03T11:51:15;30.70;30.10
64143;DHT22;50437;51.970;5.904;2022-07-03T11:53:41;30.60;30.00
64143;DHT22;50437;51.970;5.904;2022-07-03T11:56:09;30.40;31.10
64143;DHT22;50437;51.970;5.904;2022-07-03T11:58:42;30.50;31.10
64143;DHT22;50437;51.970;5.904;2022-07-03T12:01:09;30.00;30.10
64143;DHT22;50437;51.970;5.904;2022-07-03T12:03:35;30.10;30.00
64143;DHT22;50437;51.970;5.904;2022-07-03T12:06:01;30.00;30.00
64143;DHT22;50437;51.970;5.904;2022-07-03T12:08:32;30.00;28.20
64143;DHT22;50437;51.970;5.904;2022-07-03T12:11:09;30.20;29.90
64143;DHT22;50437;51.970;5.904;2022-07-03T12:13:35;30.40;28.90
64143;DHT22;50437;51.970;5.904;2022-07-03T12:16:08;30.10;27.40
64143;DHT22;50437;51.970;5.904;2022-07-03T12:21:10;29.10;29.60
64143;DHT22;50437;51.970;5.904;2022-07-03T12:23:46;28.60;32.40
64143;DHT22;50437;51.970;5.904;2022-07-03T12:26:13;27.40;33.60
64143;DHT22;50437;51.970;5.904;2022-07-03T12:28:40;27.10;35.90
64143;DHT22;50437;51.970;5.904;2022-07-03T12:31:06;27.90;32.30
64143;DHT22;50437;51.970;5.904;2022-07-03T12:33:32;28.40;31.00
64143;DHT22;50437;51.970;5.904;2022-07-03T12:36:04;28.10;31.20
64143;DHT22;50437;51.970;5.904;2022-07-03T12:38:30;28.70;32.40
64143;DHT22;50437;51.970;5.904;2022-07-03T12:41:06;29.00;31.30
64143;DHT22;50437;51.970;5.904;2022-07-03T12:43:42;28.90;29.70
64143;DHT22;50437;51.970;5.904;2022-07-03T12:46:17;28.60;31.30
64143;DHT22;50437;51.970;5.904;2022-07-03T12:48:44;28.50;31.80
64143;DHT22;50437;51.970;5.904;2022-07-03T12:51:10;28.70;29.80
64143;DHT22;50437;51.970;5.904;2022-07-03T12:53:36;28.60;31.60
64143;DHT22;50437;51.970;5.904;2022-07-03T12:56:02;29.00;30.70
64143;DHT22;50437;51.970;5.904;2022-07-03T12:58:29;28.80;31.20
64143;DHT22;50437;51.970;5.904;2022-07-03T13:01:26;29.00;30.30
64143;DHT22;50437;51.970;5.904;2022-07-03T13:03:52;29.30;30.00
64143;DHT22;50437;51.970;5.904;2022-07-03T13:06:19;29.60;29.80
64143;DHT22;50437;51.970;5.904;2022-07-03T13:08:52;29.30;29.10
64143;DHT22;50437;51.970;5.904;2022-07-03T13:14:12;27.80;32.00
64143;DHT22;50437;51.970;5.904;2022-07-03T13:19:05;27.80;33.00
64143;DHT22;50437;51.970;5.904;2022-07-03T13:21:31;27.60;32.90
64143;DHT22;50437;51.970;5.904;2022-07-03T13:23:57;28.00;33.50
64143;DHT22;50437;51.970;5.904;2022-07-03T13:26:23;27.40;32.40
64143;DHT22;50437;51.970;5.904;2022-07-03T13:28:49;26.40;33.00
64143;DHT22;50437;51.970;5.904;2022-07-03T13:31:15;25.80;34.80
64143;DHT22;50437;51.970;5.904;2022-07-03T13:33:41;25.20;36.00
64143;DHT22;50437;51.970;5.904;2022-07-03T13:36:07;24.90;37.30
64143;DHT22;50437;51.970;5.904;2022-07-03T13:38:33;24.70;38.80
64143;DHT22;50437;51.970;5.904;2022-07-03T13:40:59;25.20;37.30
64143;DHT22;50437;51.970;5.904;2022-07-03T13:43:25;25.80;37.00
64143;DHT22;50437;51.970;5.904;2022-07-03T13:45:51;26.00;36.30
64143;DHT22;50437;51.970;5.904;2022-07-03T13:48:17;26.40;35.40
64143;DHT22;50437;51.970;5.904;2022-07-03T13:50:43;26.20;33.80
64143;DHT22;50437;51.970;5.904;2022-07-03T13:53:09;25.80;34.10
64143;DHT22;50437;51.970;5.904;2022-07-03T13:55:35;25.70;36.60
64143;DHT22;50437;51.970;5.904;2022-07-03T13:58:01;26.40;33.00
64143;DHT22;50437;51.970;5.904;2022-07-03T14:00:30;26.50;31.10
64143;DHT22;50437;51.970;5.904;2022-07-03T14:02:56;26.60;31.40
64143;DHT22;50437;51.970;5.904;2022-07-03T14:05:22;26.80;32.30
64143;DHT22;50437;51.970;5.904;2022-07-03T14:07:48;26.90;32.40
64143;DHT22;50437;51.970;5.904;2022-07-03T14:10:14;26.90;32.50
64143;DHT22;50437;51.970;5.904;2022-07-03T14:12:40;26.80;32.20
64143;DHT22;50437;51.970;5.904;2022-07-03T14:15:06;26.60;32.50
64143;DHT22;50437;51.970;5.904;2022-07-03T14:17:32;26.80;31.60
64143;DHT22;50437;51.970;5.904;2022-07-03T14:19:58;27.10;32.40
64143;DHT22;50437;51.970;5.904;2022-07-03T14:22:24;26.60;30.90
64143;DHT22;50437;51.970;5.904;2022-07-03T14:24:50;25.80;34.30
64143;DHT22;50437;51.970;5.904;2022-07-03T14:27:16;26.10;35.20
64143;DHT22;50437;51.970;5.904;2022-07-03T14:30:01;26.10;36.00
64143;DHT22;50437;51.970;5.904;2022-07-03T14:32:46;26.00;37.00
64143;DHT22;50437;51.970;5.904;2022-07-03T14:35:12;25.80;37.70
64143;DHT22;50437;51.970;5.904;2022-07-03T14:37:38;26.20;36.70
64143;DHT22;50437;51.970;5.904;2022-07-03T14:40:04;26.10;36.80
64143;DHT22;50437;51.970;5.904;2022-07-03T14:42:30;26.30;36.70
64143;DHT22;50437;51.970;5.904;2022-07-03T14:44:56;26.10;36.20
64143;DHT22;50437;51.970;5.904;2022-07-03T14:47:22;25.40;38.40
64143;DHT22;50437;51.970;5.904;2022-07-03T14:49:48;25.30;35.30
64143;DHT22;50437;51.970;5.904;2022-07-03T14:52:14;25.10;37.10
64143;DHT22;50437;51.970;5.904;2022-07-03T14:54:40;24.70;37.90
64143;DHT22;50437;51.970;5.904;2022-07-03T14:57:52;24.60;38.70
64143;DHT22;50437;51.970;5.904;2022-07-03T15:02:33;25.30;40.10
64143;DHT22;50437;51.970;5.904;2022-07-03T15:05:05;25.50;38.70
64143;DHT22;50437;51.970;5.904;2022-07-03T15:07:34;25.00;39.80
64143;DHT22;50437;51.970;5.904;2022-07-03T15:10:03;25.10;39.70
64143;DHT22;50437;51.970;5.904;2022-07-03T15:12:32;25.00;39.60
64143;DHT22;50437;51.970;5.904;2022-07-03T15:14:58;25.10;39.00
64143;DHT22;50437;51.970;5.904;2022-07-03T15:17:25;25.00;38.60
64143;DHT22;50437;51.970;5.904;2022-07-03T15:19:51;25.40;39.20
64143;DHT22;50437;51.970;5.904;2022-07-03T15:22:21;25.00;39.10
64143;DHT22;50437;51.970;5.904;2022-07-03T15:24:48;24.80;40.30
64143;DHT22;50437;51.970;5.904;2022-07-03T15:27:22;24.70;39.70
64143;DHT22;50437;51.970;5.904;2022-07-03T15:29:48;25.30;39.90
64143;DHT22;50437;51.970;5.904;2022-07-03T15:32:15;25.70;37.60
64143;DHT22;50437;51.970;5.904;2022-07-03T15:34:41;25.30;36.50
64143;DHT22;50437;51.970;5.904;2022-07-03T15:37:08;24.40;38.00
64143;DHT22;50437;51.970;5.904;2022-07-03T15:39:37;23.90;40.20
64143;DHT22;50437;51.970;5.904;2022-07-03T15:49:47;24.50;39.70
64143;DHT22;50437;51.970;5.904;2022-07-03T15:52:17;24.60;37.70
64143;DHT22;50437;51.970;5.904;2022-07-03T15:54:51;24.70;38.10
64143;DHT22;50437;51.970;5.904;2022-07-03T15:59:47;24.70;38.50
64143;DHT22;50437;51.970;5.904;2022-07-03T16:02:17;24.40;39.00
64143;DHT22;50437;51.970;5.904;2022-07-03T16:07:33;23.80;39.20
64143;DHT22;50437;51.970;5.904;2022-07-03T16:09:59;23.70;40.30
64143;DHT22;50437;51.970;5.904;2022-07-03T16:12:26;23.80;40.60
64143;DHT22;50437;51.970;5.904;2022-07-03T16:14:53;23.70;40.00
64143;DHT22;50437;51.970;5.904;2022-07-03T16:17:21;23.50;40.80
64143;DHT22;50437;51.970;5.904;2022-07-03T16:19:48;23.50;40.30
64143;DHT22;50437;51.970;5.904;2022-07-03T16:22:14;23.40;40.40
64143;DHT22;50437;51.970;5.904;2022-07-03T16:24:41;23.60;39.90
64143;DHT22;50437;51.970;5.904;2022-07-03T16:27:11;23.80;40.00
64143;DHT22;50437;51.970;5.904;2022-07-03T16:29:37;24.00;40.00
64143;DHT22;50437;51.970;5.904;2022-07-03T16:32:03;23.80;38.60
64143;DHT22;50437;51.970;5.904;2022-07-03T16:34:32;23.90;39.40
64143;DHT22;50437;51.970;5.904;2022-07-03T16:36:59;23.90;40.20
64143;DHT22;50437;51.970;5.904;2022-07-03T16:39:35;24.00;38.90
64143;DHT22;50437;51.970;5.904;2022-07-03T16:42:02;24.00;39.20
64143;DHT22;50437;51.970;5.904;2022-07-03T16:44:28;23.80;39.50
64143;DHT22;50437;51.970;5.904;2022-07-03T16:46:57;24.10;38.80
64143;DHT22;50437;51.970;5.904;2022-07-03T16:49:24;24.20;37.40
64143;DHT22;50437;51.970;5.904;2022-07-03T16:51:53;24.40;38.40
64143;DHT22;50437;51.970;5.904;2022-07-03T16:54:21;24.30;38.20
64143;DHT22;50437;51.970;5.904;2022-07-03T16:56:48;24.00;36.60
64143;DHT22;50437;51.970;5.904;2022-07-03T16:59:13;23.70;37.70
64143;DHT22;50437;51.970;5.904;2022-07-03T17:01:43;23.60;38.10
64143;DHT22;50437;51.970;5.904;2022-07-03T17:04:09;23.60;37.80